sensor_id;sensor_type;location;lat;lon;timestamp;temperature;humidity
57753;DHT22;43583;53.132;6.574;2022-10-17T00:00:24;11.20;99.90
57753;DHT22;43583;53.132;6.574;2022-10-17T00:02:49;11.20;99.90
57753;DHT22;43583;53.132;6.574;2022-10-17T00:05:15;11.20;99.90
57753;DHT22;43583;53.132;6.574;2022-10-17T00:07:40;11.30;99.90
57753;DHT22;43583;53.132;6.574;2022-10-17T00:10:07;11.30;99.90
57753;DHT22;43583;53.132;6.574;2022-10-17T00:12:33;11.30;99.90
57753;DHT22;43583;53.132;6.574;2022-10-17T00:14:58;11.40;99.90
57753;DHT22;43583;53.132;6.574;2022-10-17T00:17:24;11.40;99.90
57753;DHT22;43583;53.132;6.574;2022-10-17T00:19:49;11.40;99.90
57753;DHT22;43583;53.132;6.574;2022-10-17T00:22:15;11.40;99.90
57753;DHT22;43583;53.132;6.574;2022-10-17T00:24:40;11.40;99.90
57753;DHT22;43583;53.132;6.574;2022-10-17T00:27:06;11.40;99.90
57753;DHT22;43583;53.132;6.574;2022-10-17T00:29:31;11.40;99.90
57753;DHT22;43583;53.132;6.574;2022-10-17T00:31:57;11.40;99.90
57753;DHT22;43583;53.132;6.574;2022-10-17T00:34:23;11.40;99.90
57753;DHT22;43583;53.132;6.574;2022-10-17T00:36:49;11.50;99.90
57753;DHT22;43583;53.132;6.574;2022-10-17T00:39:15;11.50;99.90
57753;DHT22;43583;53.132;6.574;2022-10-17T00:41:40;11.50;99.90
57753;DHT22;43583;53.132;6.574;2022-10-17T00:46:51;11.60;99.90
57753;DHT22;43583;53.132;6.574;2022-10-17T00:49:16;11.60;99.90
57753;DHT22;43583;53.132;6.574;2022-10-17T00:51:44;11.60;99.90
57753;DHT22;43583;53.132;6.574;2022-10-17T00:54:12;11.70;99.90
57753;DHT22;43583;53.132;6.574;2022-10-17T00:56:38;11.80;99.90
57753;DHT22;43583;53.132;6.574;2022-10-17T00:59:06;11.90;99.90
57753;DHT22;43583;53.132;6.574;2022-10-17T01:01:33;11.90;99.90
57753;DHT22;43583;53.132;6.574;2022-10-17T01:03:59;12.00;99.90
57753;DHT22;43583;53.132;6.574;2022-10-17T01:06:24;12.10;99.90
57753;DHT22;43583;53.132;6.574;2022-10-17T01:08:50;12.10;99.90
57753;DHT22;43583;53.132;6.574;2022-10-17T01:11:37;12.10;99.90
57753;DHT22;43583;53.132;6.574;2022-10-17T01:14:20;12.20;99.90
57753;DHT22;43583;53.132;6.574;2022-10-17T01:16:59;12.20;99.90
57753;DHT22;43583;53.132;6.574;2022-10-17T01:19:34;12.30;99.90
57753;DHT22;43583;53.132;6.574;2022-10-17T01:22:10;12.30;99.90
57753;DHT22;43583;53.132;6.574;2022-10-17T01:27:41;12.40;99.90
57753;DHT22;43583;53.132;6.574;2022-10-17T01:30:55;12.50;99.90
57753;DHT22;43583;53.132;6.574;2022-10-17T01:33:39;12.50;99.90
57753;DHT22;43583;53.132;6.574;2022-10-17T01:36:11;12.50;99.90
57753;DHT22;43583;53.132;6.574;2022-10-17T01:38:49;12.50;99.90
57753;DHT22;43583;53.132;6.574;2022-10-17T01:41:37;12.60;99.90
57753;DHT22;43583;53.132;6.574;2022-10-17T01:44:10;12.60;99.90
57753;DHT22;43583;53.132;6.574;2022-10-17T01:46:45;12.60;99.90
57753;DHT22;43583;53.132;6.574;2022-10-17T01:49:15;12.60;99.90
57753;DHT22;43583;53.132;6.574;2022-10-17T01:51:46;12.70;99.90
57753;DHT22;43583;53.132;6.574;2022-10-17T01:54:22;12.70;99.90
57753;DHT22;43583;53.132;6.574;2022-10-17T01:56:53;12.70;99.90
57753;DHT22;43583;53.132;6.574;2022-10-17T01:59:23;12.70;99.90
57753;DHT22;43583;53.132;6.574;2022-10-17T02:01:52;12.70;99.90
57753;DHT22;43583;53.132;6.574;2022-10-17T02:04:18;12.70;99.90
57753;DHT22;43583;53.132;6.574;2022-10-17T02:06:44;12.60;99.90
57753;DHT22;43583;53.132;6.574;2022-10-17T02:09:21;12.60;99.90
57753;DHT22;43583;53.132;6.574;2022-10-17T02:12:03;12.60;99.90
57753;DHT22;43583;53.132;6.574;2022-10-17T02:14:53;12.50;99.90
57753;DHT22;43583;53.132;6.574;2022-10-17T02:17:44;12.50;99.90
57753;DHT22;43583;53.132;6.574;2022-10-17T02:20:27;12.50;99.90
57753;DHT22;43583;53.132;6.574;2022-10-17T02:22:57;12.40;99.90
57753;DHT22;43583;53.132;6.574;2022-10-17T02:31:16;12.30;99.90
57753;DHT22;43583;53.132;6.574;2022-10-17T02:33:50;12.30;99.90
57753;DHT22;43583;53.132;6.574;2022-10-17T02:36:22;12.30;99.90
57753;DHT22;43583;53.132;6.574;2022-10-17T02:38:49;12.30;99.90
57753;DHT22;43583;53.132;6.574;2022-10-17T02:41:17;12.30;99.90
57753;DHT22;43583;53.132;6.574;2022-10-17T02:43:44;12.30;99.90
57753;DHT22;43583;53.132;6.574;2022-10-17T02:46:15;12.20;99.90
57753;DHT22;43583;53.132;6.574;2022-10-17T02:52:03;12.20;99.90
57753;DHT22;43583;53.132;6.574;2022-10-17T02:54:41;12.20;99.90
57753;DHT22;43583;53.132;6.574;2022-10-17T02:57:43;12.10;99.90
57753;DHT22;43583;53.132;6.574;2022-10-17T03:00:12;12.10;99.90
57753;DHT22;43583;53.132;6.574;2022-10-17T03:02:49;12.10;99.90
57753;DHT22;43583;53.132;6.574;2022-10-17T03:05:27;12.10;99.90
57753;DHT22;43583;53.132;6.574;2022-10-17T03:07:54;12.00;99.90
57753;DHT22;43583;53.132;6.574;2022-10-17T03:10:21;12.00;99.90
57753;DHT22;43583;53.132;6.574;2022-10-17T03:12:47;12.00;99.90
57753;DHT22;43583;53.132;6.574;2022-10-17T03:15:13;12.00;99.90
57753;DHT22;43583;53.132;6.574;2022-10-17T03:17:38;12.10;99.90
57753;DHT22;43583;53.132;6.574;2022-10-17T03:20:05;12.10;99.90
57753;DHT22;43583;53.132;6.574;2022-10-17T03:22:31;12.10;99.90
57753;DHT22;43583;53.132;6.574;2022-10-17T03:24:57;12.10;99.90
57753;DHT22;43583;53.132;6.574;2022-10-17T03:27:22;12.10;99.90
57753;DHT22;43583;53.132;6.574;2022-10-17T03:29:48;12.10;99.90
57753;DHT22;43583;53.132;6.574;2022-10-17T03:32:13;12.00;99.90
57753;DHT22;43583;53.132;6.574;2022-10-17T03:34:39;12.10;99.90
57753;DHT22;43583;53.132;6.574;2022-10-17T03:37:04;12.10;99.90
57753;DHT22;43583;53.132;6.574;2022-10-17T03:39:30;12.10;99.90
57753;DHT22;43583;53.132;6.574;2022-10-17T03:41:56;12.00;99.90
57753;DHT22;43583;53.132;6.574;2022-10-17T03:44:21;12.10;99.90
57753;DHT22;43583;53.132;6.574;2022-10-17T03:46:47;12.10;99.90
57753;DHT22;43583;53.132;6.574;2022-10-17T03:49:12;12.00;99.90
57753;DHT22;43583;53.132;6.574;2022-10-17T03:51:38;12.10;99.90
57753;DHT22;43583;53.132;6.574;2022-10-17T03:54:03;12.10;99.90
57753;DHT22;43583;53.132;6.574;2022-10-17T03:56:29;12.10;99.90
57753;DHT22;43583;53.132;6.574;2022-10-17T03:58:55;12.10;99.90
57753;DHT22;43583;53.132;6.574;2022-10-17T04:01:20;12.10;99.90
57753;DHT22;43583;53.132;6.574;2022-10-17T04:03:51;12.20;99.90
57753;DHT22;43583;53.132;6.574;2022-10-17T04:06:18;12.20;99.90
57753;DHT22;43583;53.132;6.574;2022-10-17T04:08:44;12.20;99.90
57753;DHT22;43583;53.132;6.574;2022-10-17T04:11:14;12.20;99.90
57753;DHT22;43583;53.132;6.574;2022-10-17T04:13:39;12.20;99.90
57753;DHT22;43583;53.132;6.574;2022-10-17T04:16:08;12.30;99.90
57753;DHT22;43583;53.132;6.574;2022-10-17T04:18:34;12.30;99.90
57753;DHT22;43583;53.132;6.574;2022-10-17T04:21:01;12.40;99.90
57753;DHT22;43583;53.132;6.574;2022-10-17T04:23:27;12.40;99.90
57753;DHT22;43583;53.132;6.574;2022-10-17T04:26:00;12.50;99.90
57753;DHT22;43583;53.132;6.574;2022-10-17T04:28:27;12.50;99.90
57753;DHT22;43583;53.132;6.574;2022-10-17T04:31:03;12.60;99.90
57753;DHT22;43583;53.132;6.574;2022-10-17T04:33:30;12.70;99.90
57753;DHT22;43583;53.132;6.574;2022-10-17T04:36:12;12.70;99.90
57753;DHT22;43583;53.132;6.574;2022-10-17T04:38:38;12.70;99.90
57753;DHT22;43583;53.132;6.574;2022-10-17T04:41:08;12.80;99.90
57753;DHT22;43583;53.132;6.574;2022-10-17T04:43:36;12.80;99.90
57753;DHT22;43583;53.132;6.574;2022-10-17T04:46:04;12.80;99.90
57753;DHT22;43583;53.132;6.574;2022-10-17T04:48:30;12.90;99.90
57753;DHT22;43583;53.132;6.574;2022-10-17T04:50:59;12.90;99.90
57753;DHT22;43583;53.132;6.574;2022-10-17T04:53:25;13.00;99.90
57753;DHT22;43583;53.132;6.574;2022-10-17T04:55:51;13.00;99.90
57753;DHT22;43583;53.132;6.574;2022-10-17T04:58:17;13.10;99.90
57753;DHT22;43583;53.132;6.574;2022-10-17T05:00:43;13.10;99.90
57753;DHT22;43583;53.132;6.574;2022-10-17T05:03:08;13.20;99.90
57753;DHT22;43583;53.132;6.574;2022-10-17T05:05:39;13.20;99.90
57753;DHT22;43583;53.132;6.574;2022-10-17T05:08:06;13.20;99.90
57753;DHT22;43583;53.132;6.574;2022-10-17T05:10:41;13.20;99.90
57753;DHT22;43583;53.132;6.574;2022-10-17T05:13:07;13.30;99.90
57753;DHT22;43583;53.132;6.574;2022-10-17T05:15:33;13.30;99.90
57753;DHT22;43583;53.132;6.574;2022-10-17T05:17:59;13.30;99.90
57753;DHT22;43583;53.132;6.574;2022-10-17T05:20:26;13.30;99.90
57753;DHT22;43583;53.132;6.574;2022-10-17T05:22:52;13.40;99.90
57753;DHT22;43583;53.132;6.574;2022-10-17T05:25:18;13.40;99.90
57753;DHT22;43583;53.132;6.574;2022-10-17T05:27:44;13.40;99.90
57753;DHT22;43583;53.132;6.574;2022-10-17T05:30:10;13.40;99.90
57753;DHT22;43583;53.132;6.574;2022-10-17T05:32:35;13.40;99.90
57753;DHT22;43583;53.132;6.574;2022-10-17T05:35:01;13.50;99.90
57753;DHT22;43583;53.132;6.574;2022-10-17T05:37:29;13.40;99.90
57753;DHT22;43583;53.132;6.574;2022-10-17T05:39:55;13.50;99.90
57753;DHT22;43583;53.132;6.574;2022-10-17T05:42:20;13.40;99.90
57753;DHT22;43583;53.132;6.574;2022-10-17T05:44:46;13.40;99.90
57753;DHT22;43583;53.132;6.574;2022-10-17T05:47:12;13.50;99.90
57753;DHT22;43583;53.132;6.574;2022-10-17T05:49:37;13.50;99.90
57753;DHT22;43583;53.132;6.574;2022-10-17T05:52:03;13.50;99.90
57753;DHT22;43583;53.132;6.574;2022-10-17T05:54:28;13.50;99.90
57753;DHT22;43583;53.132;6.574;2022-10-17T05:56:55;13.50;99.90
57753;DHT22;43583;53.132;6.574;2022-10-17T05:59:20;13.50;99.90
57753;DHT22;43583;53.132;6.574;2022-10-17T06:01:46;13.50;99.90
57753;DHT22;43583;53.132;6.574;2022-10-17T06:04:12;13.50;99.90
57753;DHT22;43583;53.132;6.574;2022-10-17T06:06:39;13.50;99.90
57753;DHT22;43583;53.132;6.574;2022-10-17T06:09:05;13.50;99.90
57753;DHT22;43583;53.132;6.574;2022-10-17T06:11:32;13.50;99.90
57753;DHT22;43583;53.132;6.574;2022-10-17T06:13:58;13.50;99.90
57753;DHT22;43583;53.132;6.574;2022-10-17T06:16:23;13.50;99.90
57753;DHT22;43583;53.132;6.574;2022-10-17T06:18:49;13.60;99.90
57753;DHT22;43583;53.132;6.574;2022-10-17T06:21:18;13.70;99.90
57753;DHT22;43583;53.132;6.574;2022-10-17T06:23:45;13.70;99.90
57753;DHT22;43583;53.132;6.574;2022-10-17T06:26:10;13.80;99.90
57753;DHT22;43583;53.132;6.574;2022-10-17T06:28:36;13.80;99.90
57753;DHT22;43583;53.132;6.574;2022-10-17T06:31:10;13.80;99.90
57753;DHT22;43583;53.132;6.574;2022-10-17T06:33:36;13.90;99.90
57753;DHT22;43583;53.132;6.574;2022-10-17T06:36:03;13.90;99.90
57753;DHT22;43583;53.132;6.574;2022-10-17T06:38:29;14.00;99.90
57753;DHT22;43583;53.132;6.574;2022-10-17T06:41:09;14.00;99.90
57753;DHT22;43583;53.132;6.574;2022-10-17T06:43:40;14.10;99.90
57753;DHT22;43583;53.132;6.574;2022-10-17T06:46:07;14.10;99.90
57753;DHT22;43583;53.132;6.574;2022-10-17T06:48:33;14.10;99.90
57753;DHT22;43583;53.132;6.574;2022-10-17T06:51:00;14.20;99.90
57753;DHT22;43583;53.132;6.574;2022-10-17T06:53:35;14.20;99.90
57753;DHT22;43583;53.132;6.574;2022-10-17T06:56:01;14.30;99.90
57753;DHT22;43583;53.132;6.574;2022-10-17T06:58:36;14.30;99.90
57753;DHT22;43583;53.132;6.574;2022-10-17T07:01:11;14.40;99.90
57753;DHT22;43583;53.132;6.574;2022-10-17T07:03:37;14.50;99.90
57753;DHT22;43583;53.132;6.574;2022-10-17T07:06:03;14.50;99.90
57753;DHT22;43583;53.132;6.574;2022-10-17T07:08:29;14.50;99.90
57753;DHT22;43583;53.132;6.574;2022-10-17T07:10:55;14.50;99.90
57753;DHT22;43583;53.132;6.574;2022-10-17T07:13:22;14.60;99.90
57753;DHT22;43583;53.132;6.574;2022-10-17T07:15:47;14.60;99.90
57753;DHT22;43583;53.132;6.574;2022-10-17T07:18:14;14.70;99.90
57753;DHT22;43583;53.132;6.574;2022-10-17T07:20:40;14.80;99.90
57753;DHT22;43583;53.132;6.574;2022-10-17T07:23:06;14.90;99.90
57753;DHT22;43583;53.132;6.574;2022-10-17T07:25:31;15.00;99.90
57753;DHT22;43583;53.132;6.574;2022-10-17T07:27:57;15.10;99.90
57753;DHT22;43583;53.132;6.574;2022-10-17T07:30:23;15.20;99.90
57753;DHT22;43583;53.132;6.574;2022-10-17T07:32:52;15.20;99.90
57753;DHT22;43583;53.132;6.574;2022-10-17T07:35:17;15.30;99.90
57753;DHT22;43583;53.132;6.574;2022-10-17T07:37:43;15.40;99.90
57753;DHT22;43583;53.132;6.574;2022-10-17T07:40:09;15.50;99.90
57753;DHT22;43583;53.132;6.574;2022-10-17T07:42:35;15.60;99.90
57753;DHT22;43583;53.132;6.574;2022-10-17T07:45:01;15.70;99.90
57753;DHT22;43583;53.132;6.574;2022-10-17T07:47:27;15.90;99.90
57753;DHT22;43583;53.132;6.574;2022-10-17T07:49:55;15.90;99.90
57753;DHT22;43583;53.132;6.574;2022-10-17T07:52:21;16.00;99.90
57753;DHT22;43583;53.132;6.574;2022-10-17T07:54:46;16.10;99.90
57753;DHT22;43583;53.132;6.574;2022-10-17T07:57:12;16.20;99.90
57753;DHT22;43583;53.132;6.574;2022-10-17T07:59:37;16.30;99.90
57753;DHT22;43583;53.132;6.574;2022-10-17T08:02:03;16.40;99.90
57753;DHT22;43583;53.132;6.574;2022-10-17T08:04:29;16.60;99.90
57753;DHT22;43583;53.132;6.574;2022-10-17T08:06:55;16.80;99.90
57753;DHT22;43583;53.132;6.574;2022-10-17T08:09:21;17.00;99.90
57753;DHT22;43583;53.132;6.574;2022-10-17T08:11:46;17.20;99.90
57753;DHT22;43583;53.132;6.574;2022-10-17T08:14:12;17.30;99.90
57753;DHT22;43583;53.132;6.574;2022-10-17T08:16:39;17.40;99.90
57753;DHT22;43583;53.132;6.574;2022-10-17T08:19:05;17.50;99.90
57753;DHT22;43583;53.132;6.574;2022-10-17T08:21:33;17.40;99.90
57753;DHT22;43583;53.132;6.574;2022-10-17T08:23:59;17.50;99.90
57753;DHT22;43583;53.132;6.574;2022-10-17T08:26:26;17.50;99.90
57753;DHT22;43583;53.132;6.574;2022-10-17T08:28:51;17.50;99.90
57753;DHT22;43583;53.132;6.574;2022-10-17T08:31:19;17.50;99.90
57753;DHT22;43583;53.132;6.574;2022-10-17T08:33:46;17.50;99.90
57753;DHT22;43583;53.132;6.574;2022-10-17T08:36:13;17.40;99.90
57753;DHT22;43583;53.132;6.574;2022-10-17T08:38:39;17.30;99.90
57753;DHT22;43583;53.132;6.574;2022-10-17T08:44:01;17.30;99.90
57753;DHT22;43583;53.132;6.574;2022-10-17T08:46:33;17.30;99.90
57753;DHT22;43583;53.132;6.574;2022-10-17T08:49:01;17.30;99.90
57753;DHT22;43583;53.132;6.574;2022-10-17T08:51:31;17.30;99.90
57753;DHT22;43583;53.132;6.574;2022-10-17T08:54:41;17.30;99.90
57753;DHT22;43583;53.132;6.574;2022-10-17T08:57:15;17.30;99.90
57753;DHT22;43583;53.132;6.574;2022-10-17T08:59:42;17.30;99.90
57753;DHT22;43583;53.132;6.574;2022-10-17T09:08:21;17.30;99.90
57753;DHT22;43583;53.132;6.574;2022-10-17T09:11:27;17.20;99.90
57753;DHT22;43583;53.132;6.574;2022-10-17T09:16:42;17.20;99.90
57753;DHT22;43583;53.132;6.574;2022-10-17T09:19:19;17.30;99.90
57753;DHT22;43583;53.132;6.574;2022-10-17T09:21:55;17.40;99.90
57753;DHT22;43583;53.132;6.574;2022-10-17T09:24:48;17.40;99.90
57753;DHT22;43583;53.132;6.574;2022-10-17T09:27:34;17.40;99.90
57753;DHT22;43583;53.132;6.574;2022-10-17T09:30:21;17.40;99.90
57753;DHT22;43583;53.132;6.574;2022-10-17T09:32:48;17.40;99.90
57753;DHT22;43583;53.132;6.574;2022-10-17T09:35:14;17.30;99.90
57753;DHT22;43583;53.132;6.574;2022-10-17T09:37:40;17.20;99.90
57753;DHT22;43583;53.132;6.574;2022-10-17T09:40:07;17.20;99.90
57753;DHT22;43583;53.132;6.574;2022-10-17T09:42:36;17.20;99.90
57753;DHT22;43583;53.132;6.574;2022-10-17T09:45:22;17.20;99.90
57753;DHT22;43583;53.132;6.574;2022-10-17T09:48:04;17.20;99.90
57753;DHT22;43583;53.132;6.574;2022-10-17T09:50:33;17.30;99.90
57753;DHT22;43583;53.132;6.574;2022-10-17T09:53:03;17.30;99.90
57753;DHT22;43583;53.132;6.574;2022-10-17T09:55:56;17.20;99.90
57753;DHT22;43583;53.132;6.574;2022-10-17T09:58:52;17.20;99.90
57753;DHT22;43583;53.132;6.574;2022-10-17T10:01:23;17.20;99.90
57753;DHT22;43583;53.132;6.574;2022-10-17T10:06:34;17.10;99.90
57753;DHT22;43583;53.132;6.574;2022-10-17T10:08:59;17.00;99.90
57753;DHT22;43583;53.132;6.574;2022-10-17T10:11:48;16.90;99.90
57753;DHT22;43583;53.132;6.574;2022-10-17T10:14:23;16.90;99.90
57753;DHT22;43583;53.132;6.574;2022-10-17T10:16:53;16.80;99.90
57753;DHT22;43583;53.132;6.574;2022-10-17T10:19:36;16.80;99.90
57753;DHT22;43583;53.132;6.574;2022-10-17T10:22:07;16.70;99.90
57753;DHT22;43583;53.132;6.574;2022-10-17T10:24:38;16.70;99.90
57753;DHT22;43583;53.132;6.574;2022-10-17T10:27:04;16.70;99.90
57753;DHT22;43583;53.132;6.574;2022-10-17T10:29:36;16.70;99.90
57753;DHT22;43583;53.132;6.574;2022-10-17T10:37:55;16.80;99.90
57753;DHT22;43583;53.132;6.574;2022-10-17T10:40:36;16.80;99.90
57753;DHT22;43583;53.132;6.574;2022-10-17T10:43:04;16.80;99.90
57753;DHT22;43583;53.132;6.574;2022-10-17T10:48:21;16.80;99.90
57753;DHT22;43583;53.132;6.574;2022-10-17T10:51:05;16.80;99.90
57753;DHT22;43583;53.132;6.574;2022-10-17T10:53:41;16.80;99.90
57753;DHT22;43583;53.132;6.574;2022-10-17T11:01:06;16.70;99.90
57753;DHT22;43583;53.132;6.574;2022-10-17T11:03:51;16.70;99.90
57753;DHT22;43583;53.132;6.574;2022-10-17T11:06:27;16.70;99.90
57753;DHT22;43583;53.132;6.574;2022-10-17T11:11:48;16.90;99.90
57753;DHT22;43583;53.132;6.574;2022-10-17T11:14:20;16.90;99.90
57753;DHT22;43583;53.132;6.574;2022-10-17T11:16:51;17.00;99.90
57753;DHT22;43583;53.132;6.574;2022-10-17T11:22:28;17.20;99.90
57753;DHT22;43583;53.132;6.574;2022-10-17T11:24:59;17.20;99.90
57753;DHT22;43583;53.132;6.574;2022-10-17T11:27:28;17.10;99.90
57753;DHT22;43583;53.132;6.574;2022-10-17T11:29:55;17.20;99.90
57753;DHT22;43583;53.132;6.574;2022-10-17T11:32:34;17.20;99.90
57753;DHT22;43583;53.132;6.574;2022-10-17T11:35:20;17.10;99.90
57753;DHT22;43583;53.132;6.574;2022-10-17T11:38:13;17.10;99.90
57753;DHT22;43583;53.132;6.574;2022-10-17T11:40:44;17.10;99.90
57753;DHT22;43583;53.132;6.574;2022-10-17T11:43:31;17.10;99.90
57753;DHT22;43583;53.132;6.574;2022-10-17T11:46:01;17.10;99.90
57753;DHT22;43583;53.132;6.574;2022-10-17T11:48:33;17.10;99.90
57753;DHT22;43583;53.132;6.574;2022-10-17T11:51:07;17.10;99.90
57753;DHT22;43583;53.132;6.574;2022-10-17T11:53:46;17.00;99.90
57753;DHT22;43583;53.132;6.574;2022-10-17T11:56:17;17.00;99.90
57753;DHT22;43583;53.132;6.574;2022-10-17T11:59:09;17.00;99.90
57753;DHT22;43583;53.132;6.574;2022-10-17T12:01:48;17.00;99.90
57753;DHT22;43583;53.132;6.574;2022-10-17T12:07:26;17.00;99.90
57753;DHT22;43583;53.132;6.574;2022-10-17T12:10:28;17.10;99.90
57753;DHT22;43583;53.132;6.574;2022-10-17T12:12:55;17.10;99.90
57753;DHT22;43583;53.132;6.574;2022-10-17T12:18:02;17.30;99.90
57753;DHT22;43583;53.132;6.574;2022-10-17T12:20:33;17.30;99.90
57753;DHT22;43583;53.132;6.574;2022-10-17T12:23:19;17.40;99.90
57753;DHT22;43583;53.132;6.574;2022-10-17T12:25:54;17.40;99.90
57753;DHT22;43583;53.132;6.574;2022-10-17T12:30:57;17.50;99.90
57753;DHT22;43583;53.132;6.574;2022-10-17T12:33:26;17.50;99.90
57753;DHT22;43583;53.132;6.574;2022-10-17T12:36:35;17.50;99.90
57753;DHT22;43583;53.132;6.574;2022-10-17T12:49:49;17.80;99.90
57753;DHT22;43583;53.132;6.574;2022-10-17T12:57:41;17.70;99.90
57753;DHT22;43583;53.132;6.574;2022-10-17T13:00:20;17.60;99.90
57753;DHT22;43583;53.132;6.574;2022-10-17T13:02:46;17.60;99.90
57753;DHT22;43583;53.132;6.574;2022-10-17T13:05:20;17.60;99.90
57753;DHT22;43583;53.132;6.574;2022-10-17T13:07:48;17.60;99.90
57753;DHT22;43583;53.132;6.574;2022-10-17T13:10:28;17.50;99.90
57753;DHT22;43583;53.132;6.574;2022-10-17T13:13:05;17.50;99.90
57753;DHT22;43583;53.132;6.574;2022-10-17T13:15:31;17.40;99.90
57753;DHT22;43583;53.132;6.574;2022-10-17T13:17:59;17.20;99.90
57753;DHT22;43583;53.132;6.574;2022-10-17T13:20:27;17.20;99.90
57753;DHT22;43583;53.132;6.574;2022-10-17T13:22:55;17.20;99.90
57753;DHT22;43583;53.132;6.574;2022-10-17T13:25:22;17.10;99.90
57753;DHT22;43583;53.132;6.574;2022-10-17T13:27:48;17.10;99.90
57753;DHT22;43583;53.132;6.574;2022-10-17T13:32:49;17.00;99.90
57753;DHT22;43583;53.132;6.574;2022-10-17T13:35:22;16.90;99.90
57753;DHT22;43583;53.132;6.574;2022-10-17T13:37:49;16.90;99.90
57753;DHT22;43583;53.132;6.574;2022-10-17T13:40:27;16.90;99.90
57753;DHT22;43583;53.132;6.574;2022-10-17T13:42:54;16.80;99.90
57753;DHT22;43583;53.132;6.574;2022-10-17T13:47:51;16.70;99.90
57753;DHT22;43583;53.132;6.574;2022-10-17T13:50:39;16.70;99.90
57753;DHT22;43583;53.132;6.574;2022-10-17T13:56:04;16.50;99.90
57753;DHT22;43583;53.132;6.574;2022-10-17T13:58:31;16.50;99.90
57753;DHT22;43583;53.132;6.574;2022-10-17T14:00:57;16.50;99.90
57753;DHT22;43583;53.132;6.574;2022-10-17T14:03:23;16.50;99.90
57753;DHT22;43583;53.132;6.574;2022-10-17T14:06:04;16.50;99.90
57753;DHT22;43583;53.132;6.574;2022-10-17T14:08:31;16.50;99.90
57753;DHT22;43583;53.132;6.574;2022-10-17T14:10:58;16.50;99.90
57753;DHT22;43583;53.132;6.574;2022-10-17T14:13:26;16.50;99.90
57753;DHT22;43583;53.132;6.574;2022-10-17T14:15:54;16.50;99.90
57753;DHT22;43583;53.132;6.574;2022-10-17T14:18:24;16.50;99.90
57753;DHT22;43583;53.132;6.574;2022-10-17T14:20:50;16.50;99.90
57753;DHT22;43583;53.132;6.574;2022-10-17T14:23:28;16.50;99.90
57753;DHT22;43583;53.132;6.574;2022-10-17T14:28:38;16.50;99.90
57753;DHT22;43583;53.132;6.574;2022-10-17T14:31:17;16.40;99.90
57753;DHT22;43583;53.132;6.574;2022-10-17T14:33:45;16.40;99.90
57753;DHT22;43583;53.132;6.574;2022-10-17T14:36:11;16.40;99.90
57753;DHT22;43583;53.132;6.574;2022-10-17T14:38:37;16.40;99.90
57753;DHT22;43583;53.132;6.574;2022-10-17T14:41:24;16.40;99.90
57753;DHT22;43583;53.132;6.574;2022-10-17T14:43:55;16.40;99.90
57753;DHT22;43583;53.132;6.574;2022-10-17T14:46:22;16.40;99.90
57753;DHT22;43583;53.132;6.574;2022-10-17T14:48:53;16.40;99.90
57753;DHT22;43583;53.132;6.574;2022-10-17T14:51:19;16.40;99.90
57753;DHT22;43583;53.132;6.574;2022-10-17T14:54:12;16.30;99.90
57753;DHT22;43583;53.132;6.574;2022-10-17T14:56:41;16.30;99.90
57753;DHT22;43583;53.132;6.574;2022-10-17T14:59:07;16.20;99.90
57753;DHT22;43583;53.132;6.574;2022-10-17T15:01:35;16.20;99.90
57753;DHT22;43583;53.132;6.574;2022-10-17T15:04:01;16.20;99.90
57753;DHT22;43583;53.132;6.574;2022-10-17T15:06:29;16.10;99.90
57753;DHT22;43583;53.132;6.574;2022-10-17T15:08:55;16.20;99.90
57753;DHT22;43583;53.132;6.574;2022-10-17T15:11:21;16.20;99.90
57753;DHT22;43583;53.132;6.574;2022-10-17T15:13:46;16.20;99.90
57753;DHT22;43583;53.132;6.574;2022-10-17T15:16:26;16.20;99.90
57753;DHT22;43583;53.132;6.574;2022-10-17T15:18:54;16.20;99.90
57753;DHT22;43583;53.132;6.574;2022-10-17T15:21:22;16.20;99.90
57753;DHT22;43583;53.132;6.574;2022-10-17T15:23:48;16.30;99.90
57753;DHT22;43583;53.132;6.574;2022-10-17T15:28:41;16.30;99.90
57753;DHT22;43583;53.132;6.574;2022-10-17T15:31:15;16.30;99.90
57753;DHT22;43583;53.132;6.574;2022-10-17T15:33:42;16.30;99.90
57753;DHT22;43583;53.132;6.574;2022-10-17T15:36:38;16.30;99.90
57753;DHT22;43583;53.132;6.574;2022-10-17T15:39:04;16.30;99.90
57753;DHT22;43583;53.132;6.574;2022-10-17T15:41:31;16.20;99.90
57753;DHT22;43583;53.132;6.574;2022-10-17T15:43:57;16.20;99.90
57753;DHT22;43583;53.132;6.574;2022-10-17T15:46:25;16.10;99.90
57753;DHT22;43583;53.132;6.574;2022-10-17T15:48:52;16.00;99.90
57753;DHT22;43583;53.132;6.574;2022-10-17T15:51:19;16.00;99.90
57753;DHT22;43583;53.132;6.574;2022-10-17T15:53:44;15.80;99.90
57753;DHT22;43583;53.132;6.574;2022-10-17T15:56:22;15.80;99.90
57753;DHT22;43583;53.132;6.574;2022-10-17T15:58:49;15.70;99.90
57753;DHT22;43583;53.132;6.574;2022-10-17T16:01:20;15.70;99.90
57753;DHT22;43583;53.132;6.574;2022-10-17T16:03:46;15.70;99.90
57753;DHT22;43583;53.132;6.574;2022-10-17T16:06:14;15.60;99.90
57753;DHT22;43583;53.132;6.574;2022-10-17T16:08:40;15.60;99.90
57753;DHT22;43583;53.132;6.574;2022-10-17T16:11:05;15.50;99.90
57753;DHT22;43583;53.132;6.574;2022-10-17T16:13:34;15.50;99.90
57753;DHT22;43583;53.132;6.574;2022-10-17T16:15:59;15.40;99.90
57753;DHT22;43583;53.132;6.574;2022-10-17T16:18:25;15.30;99.90
57753;DHT22;43583;53.132;6.574;2022-10-17T16:20:50;15.30;99.90
57753;DHT22;43583;53.132;6.574;2022-10-17T16:23:16;15.30;99.90
57753;DHT22;43583;53.132;6.574;2022-10-17T16:25:42;15.20;99.90
57753;DHT22;43583;53.132;6.574;2022-10-17T16:28:07;15.10;99.90
57753;DHT22;43583;53.132;6.574;2022-10-17T16:30:40;15.10;99.90
57753;DHT22;43583;53.132;6.574;2022-10-17T16:33:07;15.00;99.90
57753;DHT22;43583;53.132;6.574;2022-10-17T16:35:32;15.00;99.90
57753;DHT22;43583;53.132;6.574;2022-10-17T16:37:58;14.90;99.90
57753;DHT22;43583;53.132;6.574;2022-10-17T16:40:24;14.90;99.90
57753;DHT22;43583;53.132;6.574;2022-10-17T16:42:49;14.80;99.90
57753;DHT22;43583;53.132;6.574;2022-10-17T16:45:18;14.80;99.90
57753;DHT22;43583;53.132;6.574;2022-10-17T16:47:44;14.80;99.90
57753;DHT22;43583;53.132;6.574;2022-10-17T16:50:10;14.70;99.90
57753;DHT22;43583;53.132;6.574;2022-10-17T16:52:36;14.70;99.90
57753;DHT22;43583;53.132;6.574;2022-10-17T16:55:02;14.70;99.90
57753;DHT22;43583;53.132;6.574;2022-10-17T16:57:27;14.70;99.90
57753;DHT22;43583;53.132;6.574;2022-10-17T16:59:53;14.70;99.90
57753;DHT22;43583;53.132;6.574;2022-10-17T17:02:18;14.60;99.90
57753;DHT22;43583;53.132;6.574;2022-10-17T17:04:44;14.60;99.90
57753;DHT22;43583;53.132;6.574;2022-10-17T17:07:09;14.60;99.90
57753;DHT22;43583;53.132;6.574;2022-10-17T17:09:35;14.60;99.90
57753;DHT22;43583;53.132;6.574;2022-10-17T17:12:01;14.60;99.90
57753;DHT22;43583;53.132;6.574;2022-10-17T17:14:26;14.50;99.90